Time;durP1;ratioP1;P1;durP2;ratioP2;P2;SDS_P1;SDS_P2;PMS_P1;PMS_P2;Temp;Humidity;BMP_temperature;BMP_pressure;BME280_temperature;BME280_humidity;BME280_pressure;Samples;Min_cycle;Max_cycle;Signal;HPM_P1;HPM_P2
2022/09/20 00:00:40;;;;;;;6.22;2.17;;;;;;;16.21;100.00;94431.78;4946412;28;20098;-89
2022/09/20 00:03:06;;;;;;;2.47;1.67;;;;;;;16.34;100.00;94432.78;4962666;28;20074;-89
2022/09/20 00:05:36;;;;;;;6.78;1.80;;;;;;;16.52;100.00;94428.41;4962589;28;20035;-89
2022/09/20 00:08:06;;;;;;;3.72;1.77;;;;;;;16.66;100.00;94437.03;4962284;28;20455;-89
2022/09/20 00:10:38;;;;;;;5.43;1.98;;;;;;;16.76;100.00;94443.16;4962185;28;20467;-89
2022/09/20 00:13:08;;;;;;;4.10;1.60;;;;;;;16.76;97.93;94437.84;4962770;28;20069;-89
2022/09/20 00:15:34;;;;;;;4.43;1.88;;;;;;;16.53;98.40;94436.03;4962422;28;20019;-89
2022/09/20 00:17:59;;;;;;;4.75;1.95;;;;;;;16.54;100.00;94442.09;4962362;28;20113;-89
2022/09/20 00:20:25;;;;;;;4.93;2.10;;;;;;;16.77;94.43;94436.78;4961872;28;20117;-89
2022/09/20 00:22:51;;;;;;;3.83;2.08;;;;;;;16.85;91.93;94438.66;4962033;28;20022;-89
2022/09/20 00:25:18;;;;;;;9.45;2.17;;;;;;;17.03;89.09;94430.84;4962187;28;20081;-89
2022/09/20 00:27:45;;;;;;;3.92;1.80;;;;;;;17.12;88.51;94422.91;4962401;28;20030;-89
2022/09/20 00:30:11;;;;;;;8.35;2.33;;;;;;;16.77;90.16;94439.41;4945916;28;20030;-89
2022/09/20 00:32:37;;;;;;;5.15;1.65;;;;;;;16.79;93.88;94435.41;4946233;28;20034;-88
2022/09/20 00:35:12;;;;;;;4.95;2.05;;;;;;;16.75;92.10;94429.13;4961892;28;20026;-89
2022/09/20 00:37:56;;;;;;;8.70;2.08;;;;;;;16.80;90.46;94429.00;4979271;28;20031;-90
2022/09/20 00:40:23;;;;;;;4.68;1.80;;;;;;;16.72;93.98;94428.97;4961561;28;20022;-89
2022/09/20 00:42:49;;;;;;;4.25;2.08;;;;;;;16.49;94.71;94437.72;4961882;28;20023;-89
2022/09/20 00:45:21;;;;;;;5.15;1.45;;;;;;;16.49;94.83;94424.47;4978951;28;20084;-89
2022/09/20 00:47:55;;;;;;;8.33;2.13;;;;;;;16.54;97.43;94424.38;4960974;28;20026;-90
2022/09/20 00:50:39;;;;;;;4.75;1.58;;;;;;;16.59;95.99;94422.69;4961455;28;20033;-90
2022/09/20 00:53:19;;;;;;;5.18;1.80;;;;;;;16.59;94.70;94420.81;4978671;28;20035;-88
2022/09/20 00:55:59;;;;;;;4.82;1.75;;;;;;;16.53;95.44;94422.03;4961857;28;20037;-90
2022/09/20 00:58:26;;;;;;;3.45;1.70;;;;;;;16.44;99.25;94418.56;4961357;28;20033;-89
2022/09/20 01:00:54;;;;;;;4.70;1.70;;;;;;;16.40;98.99;94419.16;4961459;28;20456;-89
2022/09/20 01:03:21;;;;;;;4.78;1.90;;;;;;;16.29;100.00;94415.22;4945688;28;20027;-89
2022/09/20 01:05:49;;;;;;;3.25;1.70;;;;;;;16.29;100.00;94417.06;4961555;28;20104;-88
2022/09/20 01:08:14;;;;;;;4.28;1.77;;;;;;;15.68;100.00;94423.44;4961809;28;20039;-89
2022/09/20 01:10:40;;;;;;;5.25;1.63;;;;;;;15.89;100.00;94423.00;4961360;28;20085;-89
2022/09/20 01:13:05;;;;;;;4.47;2.10;;;;;;;15.64;100.00;94428.56;4945628;28;20026;-89
2022/09/20 01:15:33;;;;;;;3.85;2.00;;;;;;;15.36;100.00;94425.19;4961398;28;20015;-88
2022/09/20 01:18:00;;;;;;;4.25;1.85;;;;;;;15.87;100.00;94418.00;4961211;28;20023;-89
2022/09/20 01:20:38;;;;;;;2.72;1.45;;;;;;;16.00;100.00;94420.94;4945449;28;20452;-89
2022/09/20 01:23:31;;;;;;;6.90;1.80;;;;;;;15.75;100.00;94425.66;4961430;28;20447;-89
2022/09/20 01:26:28;;;;;;;3.13;1.63;;;;;;;15.83;97.84;94419.69;4978225;28;20056;-89
2022/09/20 01:29:23;;;;;;;3.53;1.63;;;;;;;15.87;98.31;94412.72;4973200;28;20042;-90
2022/09/20 01:31:52;;;;;;;4.28;1.92;;;;;;;15.78;97.50;94412.66;4964389;28;20053;-88
2022/09/20 01:34:31;;;;;;;3.88;1.67;;;;;;;15.72;97.89;94416.50;4961041;28;20081;-89
2022/09/20 01:37:00;;;;;;;4.03;1.83;;;;;;;15.83;99.21;94420.44;4960989;28;20057;-89
2022/09/20 01:40:03;;;;;;;3.13;1.42;;;;;;;15.95;98.21;94417.31;4977875;28;20038;-88
2022/09/20 01:42:36;;;;;;;2.88;1.45;;;;;;;15.76;97.00;94417.47;4977842;28;20026;-89
2022/09/20 01:45:21;;;;;;;4.97;1.50;;;;;;;15.32;98.08;94418.94;4961066;28;20053;-88
2022/09/20 01:48:02;;;;;;;3.67;1.50;;;;;;;15.46;99.03;94418.88;4960930;28;20038;-88
2022/09/20 01:50:56;;;;;;;5.30;1.70;;;;;;;15.30;99.96;94411.28;4961430;28;20067;-89
2022/09/20 01:53:40;;;;;;;4.13;1.60;;;;;;;15.59;98.37;94407.53;4964146;28;20073;-90
2022/09/20 01:56:24;;;;;;;3.60;1.63;;;;;;;15.56;96.96;94408.13;4960775;28;20071;-89
2022/09/20 01:59:08;;;;;;;;;;;;;;;15.84;94.07;94414.09;4965447;28;20035;-88
2022/09/20 02:01:52;;;;;;;2.03;1.25;;;;;;;15.77;96.97;94410.31;4964849;28;19921;-88
2022/09/20 02:04:42;;;;;;;3.03;1.70;;;;;;;15.67;97.15;94411.31;4963957;29;20089;-88
2022/09/20 02:07:37;;;;;;;3.90;1.55;;;;;;;15.68;97.98;94405.75;4981696;28;20073;-88
2022/09/20 02:10:09;;;;;;;2.60;1.60;;;;;;;15.52;96.60;94409.81;4956428;28;20030;-88
2022/09/20 02:12:55;;;;;;;13.95;1.77;;;;;;;15.65;96.71;94405.56;4966897;28;20085;-88
2022/09/20 02:15:36;;;;;;;2.53;1.42;;;;;;;15.43;95.98;94409.72;4966917;28;20027;-88
2022/09/20 02:18:39;;;;;;;3.90;1.73;;;;;;;15.47;98.29;94415.19;4967148;28;20078;-88
2022/09/20 02:21:10;;;;;;;6.15;1.45;;;;;;;15.39;97.82;94406.88;4983877;28;20392;-88
2022/09/20 02:23:53;;;;;;;5.20;2.00;;;;;;;15.63;94.45;94408.47;4966757;28;20084;-88
2022/09/20 02:26:46;;;;;;;1.92;1.13;;;;;;;15.61;96.43;94410.63;4967052;28;20037;-88
2022/09/20 02:29:20;;;;;;;4.82;1.63;;;;;;;15.58;98.38;94405.19;4983821;28;20070;-88
2022/09/20 02:32:07;;;;;;;5.55;1.77;;;;;;;15.48;95.10;94406.97;4983859;28;20030;-87
2022/09/20 02:34:42;;;;;;;3.63;1.55;;;;;;;15.60;92.17;94397.75;4983831;28;20099;-87
2022/09/20 02:37:28;;;;;;;4.05;1.92;;;;;;;15.79;90.46;94400.25;4964178;28;20035;-87
2022/09/20 02:40:19;;;;;;;6.63;1.95;;;;;;;16.03;88.72;94405.25;4947367;29;20318;-88
2022/09/20 02:43:00;;;;;;;4.28;1.40;;;;;;;15.91;92.11;94403.13;4947628;28;20138;-87
2022/09/20 02:45:31;;;;;;;3.97;1.58;;;;;;;15.82;90.90;94407.56;4931537;28;20456;-88
2022/09/20 02:48:02;;;;;;;3.92;1.88;;;;;;;15.84;91.85;94406.16;4931772;29;20042;-88
2022/09/20 02:50:37;;;;;;;2.95;1.67;;;;;;;15.40;93.42;94405.81;4947369;29;20027;-87
2022/09/20 02:53:36;;;;;;;3.67;1.40;;;;;;;15.56;91.06;94408.13;4947468;28;20389;-88
2022/09/20 02:56:17;;;;;;;2.15;1.30;;;;;;;15.23;94.72;94403.78;4947373;29;20031;-88
2022/09/20 02:58:50;;;;;;;8.10;2.38;;;;;;;15.49;90.86;94410.38;4931760;29;20038;-88
2022/09/20 03:01:29;;;;;;;9.25;1.90;;;;;;;15.39;90.57;94411.38;4947402;29;20054;-88
2022/09/20 03:04:24;;;;;;;3.00;1.65;;;;;;;15.02;92.85;94421.88;4964314;29;20035;-88
2022/09/20 03:07:29;;;;;;;3.67;1.73;;;;;;;15.24;97.72;94425.69;4947256;28;20384;-88
2022/09/20 03:10:12;;;;;;;5.60;1.65;;;;;;;15.05;100.00;94429.19;4941027;29;20043;-87
2022/09/20 03:12:51;;;;;;;3.90;1.60;;;;;;;14.97;99.72;94425.38;4961103;29;20031;-87
2022/09/20 03:15:32;;;;;;;3.72;1.65;;;;;;;14.91;100.00;94417.84;4944386;29;20106;-87
2022/09/20 03:18:11;;;;;;;4.47;1.40;;;;;;;14.64;100.00;94417.53;4944110;29;20063;-89
2022/09/20 03:21:09;;;;;;;3.60;1.70;;;;;;;15.00;100.00;94426.66;4944143;29;20031;-88
2022/09/20 03:23:52;;;;;;;6.53;2.78;;;;;;;14.89;100.00;94427.94;4949502;29;20141;-87
2022/09/20 03:26:43;;;;;;;11.02;2.83;;;;;;;14.90;100.00;94429.50;4943842;29;20038;-87
2022/09/20 03:29:08;;;;;;;10.07;2.20;;;;;;;15.10;100.00;94433.59;4960873;29;20042;-88
2022/09/20 03:31:49;;;;;;;5.55;2.92;;;;;;;14.92;100.00;94433.41;4960843;29;20199;-88
2022/09/20 03:34:32;;;;;;;7.72;2.35;;;;;;;15.22;100.00;94441.03;4960704;29;20435;-88
2022/09/20 03:37:22;;;;;;;6.47;2.10;;;;;;;14.63;100.00;94441.53;4943650;29;20042;-87
2022/09/20 03:40:09;;;;;;;5.22;2.40;;;;;;;14.70;100.00;94444.59;4960811;29;20090;-87
2022/09/20 03:42:41;;;;;;;7.78;2.45;;;;;;;14.96;100.00;94438.88;4960585;29;20066;-88
2022/09/20 03:45:21;;;;;;;5.53;3.03;;;;;;;14.75;100.00;94449.03;4943642;29;20027;-89
2022/09/20 03:48:16;;;;;;;7.93;2.53;;;;;;;14.27;100.00;94445.56;4943509;29;20046;-87
2022/09/20 03:50:54;;;;;;;5.47;1.98;;;;;;;14.80;100.00;94433.09;4925758;29;20043;-88
2022/09/20 03:53:57;;;;;;;8.60;2.80;;;;;;;14.62;100.00;94434.69;4943637;29;20027;-88
2022/09/20 03:57:01;;;;;;;7.07;3.00;;;;;;;14.92;100.00;94436.03;4960755;29;20057;-88
2022/09/20 03:59:48;;;;;;;5.82;3.03;;;;;;;14.82;100.00;94434.38;4924017;29;20050;-88
2022/09/20 04:02:29;;;;;;;6.03;2.75;;;;;;;14.86;100.00;94439.06;4943677;29;20413;-88
2022/09/20 04:04:58;;;;;;;8.38;3.10;;;;;;;14.53;100.00;94443.31;4943489;29;20357;-87
2022/09/20 04:07:30;;;;;;;6.43;2.58;;;;;;;14.53;100.00;94432.75;4943425;29;20061;-88
2022/09/20 04:10:06;;;;;;;10.43;3.33;;;;;;;14.22;100.00;94441.19;4960065;29;20429;-88
2022/09/20 04:12:52;;;;;;;10.00;3.30;;;;;;;14.74;100.00;94437.69;4943454;29;20034;-89
2022/09/20 04:15:35;;;;;;;5.20;2.85;;;;;;;14.65;100.00;94442.81;4943231;29;20050;-88
2022/09/20 04:18:32;;;;;;;9.68;3.20;;;;;;;14.39;100.00;94437.97;4943351;29;20122;-89
2022/09/20 04:21:22;;;;;;;7.07;2.90;;;;;;;14.57;100.00;94443.50;4918611;29;20090;-89
2022/09/20 04:24:09;;;;;;;9.52;3.03;;;;;;;13.77;100.00;94444.19;4942938;29;20052;-89
2022/09/20 04:27:04;;;;;;;5.63;2.70;;;;;;;14.36;100.00;94445.72;4942665;29;20130;-90
2022/09/20 04:29:43;;;;;;;7.95;3.10;;;;;;;14.33;100.00;94448.91;4936795;29;20042;-89
2022/09/20 04:32:22;;;;;;;9.70;2.90;;;;;;;14.04;100.00;94449.88;4943175;29;20027;-89
2022/09/20 04:37:39;;;;;;;7.68;2.25;;;;;;;14.05;100.00;94443.53;4945337;29;20053;-87
2022/09/20 04:40:46;;;;;;;8.18;3.00;;;;;;;13.94;100.00;94448.97;4927096;29;20031;-87
2022/09/20 04:43:51;;;;;;;8.15;2.60;;;;;;;13.95;100.00;94455.81;4970928;28;20050;-89
2022/09/20 04:46:22;;;;;;;;;;;;;;;14.48;100.00;94450.50;4958848;28;20090;-88
2022/09/20 04:49:04;;;;;;;9.13;2.65;;;;;;;14.30;100.00;94452.13;4959172;29;20337;-88
2022/09/20 04:52:02;;;;;;;5.18;3.22;;;;;;;14.06;100.00;94450.38;4927207;29;20411;-88
2022/09/20 04:54:46;;;;;;;5.75;2.60;;;;;;;13.82;100.00;94448.63;4959390;29;20031;-89
2022/09/20 04:57:24;;;;;;;5.03;2.65;;;;;;;14.15;100.00;94456.56;4959340;29;20345;-89
2022/09/20 05:00:12;;;;;;;6.10;2.60;;;;;;;14.02;100.00;94462.56;4959200;29;20062;-88
2022/09/20 05:02:56;;;;;;;4.15;2.35;;;;;;;14.34;100.00;94467.06;4942548;29;20042;-88
2022/09/20 05:05:43;;;;;;;9.80;2.88;;;;;;;14.50;100.00;94466.81;4959401;29;20042;-92
2022/09/20 05:08:33;;;;;;;4.97;2.60;;;;;;;14.39;100.00;94469.63;4942498;29;20123;-92
2022/09/20 05:11:29;;;;;;;7.30;3.80;;;;;;;14.17;100.00;94474.72;4959479;29;20353;-92
2022/09/20 05:14:12;;;;;;;6.93;2.83;;;;;;;13.77;100.00;94475.00;4958273;29;20449;-92
2022/09/20 05:16:47;;;;;;;10.07;4.07;;;;;;;14.04;100.00;94473.56;4959214;29;20118;-92
2022/09/20 05:19:25;;;;;;;8.98;3.78;;;;;;;14.47;100.00;94468.16;4967676;28;20031;-91
2022/09/20 05:22:17;;;;;;;10.30;4.18;;;;;;;14.47;100.00;94476.06;4961923;28;20119;-92
2022/09/20 05:25:05;;;;;;;6.32;3.80;;;;;;;14.54;100.00;94476.50;4961601;28;20495;-92
2022/09/20 05:27:55;;;;;;;9.18;4.32;;;;;;;14.26;100.00;94473.78;4961390;28;20065;-92
2022/09/20 05:30:33;;;;;;;9.25;3.75;;;;;;;14.14;100.00;94484.78;4945669;28;20318;-92
2022/09/20 05:33:19;;;;;;;10.63;3.47;;;;;;;14.66;100.00;94488.44;4944867;28;20031;-92
2022/09/20 05:36:07;;;;;;;7.75;3.63;;;;;;;14.94;100.00;94478.75;4978313;28;20034;-91
2022/09/20 05:38:46;;;;;;;7.97;3.45;;;;;;;14.67;100.00;94482.88;4949206;28;20034;-92
2022/09/20 05:41:22;;;;;;;11.02;3.67;;;;;;;14.55;100.00;94482.53;4978364;28;20026;-91
2022/09/20 05:44:04;;;;;;;7.43;3.28;;;;;;;14.60;100.00;94490.38;4961260;28;20027;-92
2022/09/20 05:46:50;;;;;;;10.07;3.08;;;;;;;14.50;100.00;94485.28;4961197;28;20038;-91
2022/09/20 05:49:23;;;;;;;6.68;2.80;;;;;;;14.77;100.00;94492.47;4961440;28;20026;-92
2022/09/20 05:52:08;;;;;;;5.88;2.78;;;;;;;15.39;100.00;94493.22;4961271;28;20030;-91
2022/09/20 05:55:14;;;;;;;8.80;3.00;;;;;;;15.57;100.00;94491.53;4945399;28;20037;-92
2022/09/20 06:01:21;;;;;;;6.15;2.40;;;;;;;15.82;100.00;94486.81;4978048;28;20042;-92
2022/09/20 06:03:54;;;;;;;6.28;2.83;;;;;;;14.79;100.00;94493.00;4944894;28;20029;-92
2022/09/20 06:06:31;;;;;;;8.05;2.92;;;;;;;15.03;100.00;94491.25;4961101;28;20026;-91
2022/09/20 06:09:08;;;;;;;4.22;2.60;;;;;;;15.89;100.00;94491.69;4961069;28;20033;-91
2022/09/20 06:12:04;;;;;;;8.20;2.35;;;;;;;15.79;100.00;94493.47;4978322;28;20030;-91
2022/09/20 06:15:01;;;;;;;5.07;2.63;;;;;;;15.52;100.00;94496.94;4961163;28;20030;-91
2022/09/20 06:17:36;;;;;;;6.50;2.75;;;;;;;16.29;100.00;94499.03;4961079;28;20027;-91
2022/09/20 06:20:14;;;;;;;4.07;2.42;;;;;;;16.56;100.00;94494.69;4961349;28;20034;-92
2022/09/20 06:22:43;;;;;;;6.18;2.47;;;;;;;16.67;98.52;94496.00;4978183;28;20030;-91
2022/09/20 06:25:09;;;;;;;4.38;1.90;;;;;;;16.67;98.03;94501.31;4961367;28;20035;-91
2022/09/20 06:27:36;;;;;;;8.13;2.10;;;;;;;16.87;96.24;94494.72;4961100;28;20085;-92
2022/09/20 06:30:06;;;;;;;3.25;2.20;;;;;;;17.00;96.67;94495.75;4960906;28;20031;-92
2022/09/20 06:32:33;;;;;;;6.53;2.17;;;;;;;17.12;94.51;94497.03;4960662;28;20058;-92
2022/09/20 06:35:01;;;;;;;3.28;1.90;;;;;;;17.33;95.46;94507.88;4961178;28;20022;-91
2022/09/20 06:46:55;;;;;;;5.15;1.75;;;;;;;17.70;100.00;94507.66;4981448;28;20049;-91
2022/09/20 06:49:22;;;;;;;8.10;2.13;;;;;;;17.59;100.00;94499.22;4964205;28;20034;-91
2022/09/20 06:51:51;;;;;;;3.35;1.80;;;;;;;17.57;100.00;94506.66;4964533;28;20085;-92
2022/09/20 06:54:18;;;;;;;6.63;2.10;;;;;;;17.04;100.00;94511.81;4964829;28;20078;-92
2022/09/20 06:56:45;;;;;;;4.80;2.22;;;;;;;17.61;100.00;94508.41;4964332;28;20053;-91
2022/09/20 06:59:11;;;;;;;4.18;2.55;;;;;;;17.72;100.00;94514.22;4964363;28;20034;-91
2022/09/20 07:01:37;;;;;;;7.47;2.42;;;;;;;17.63;100.00;94514.16;4948226;28;20053;-91
2022/09/20 07:04:04;;;;;;;4.05;2.15;;;;;;;17.49;98.72;94514.31;4964135;28;20034;-92
2022/09/20 07:06:30;;;;;;;4.55;2.42;;;;;;;17.56;99.34;94516.50;4964150;28;20050;-92
2022/09/20 07:08:56;;;;;;;6.45;2.33;;;;;;;17.73;94.50;94518.41;4963715;28;20030;-91
2022/09/20 07:11:22;;;;;;;4.15;2.00;;;;;;;17.71;96.01;94525.09;4964070;28;20035;-92
2022/09/20 07:13:52;;;;;;;11.10;2.50;;;;;;;18.00;95.07;94519.22;4948041;28;20093;-92
2022/09/20 07:16:18;;;;;;;5.10;2.30;;;;;;;17.81;96.40;94522.94;4964213;28;20034;-92
2022/09/20 07:18:44;;;;;;;4.95;2.20;;;;;;;17.97;98.12;94521.72;4947874;28;20031;-92
2022/09/20 07:21:14;;;;;;;6.05;2.13;;;;;;;18.22;93.03;94528.94;4963888;28;20031;-92
2022/09/20 07:23:40;;;;;;;4.47;2.17;;;;;;;18.03;95.53;94523.94;4963819;28;20034;-92
2022/09/20 07:26:06;;;;;;;3.58;1.95;;;;;;;18.09;100.00;94527.22;4947987;28;20492;-91
2022/09/20 07:28:33;;;;;;;7.35;1.95;;;;;;;18.50;97.51;94522.53;4963767;28;20130;-92
2022/09/20 07:31:00;;;;;;;7.50;1.95;;;;;;;18.66;95.30;94528.16;4963794;28;20026;-92
2022/09/20 07:33:25;;;;;;;3.28;1.90;;;;;;;18.62;93.21;94532.50;4947729;28;20034;-92
2022/09/20 07:35:55;;;;;;;4.35;1.88;;;;;;;18.74;92.00;94526.56;4963517;28;20027;-92
2022/09/20 07:38:21;;;;;;;3.55;1.85;;;;;;;18.55;100.00;94532.22;4964386;28;20125;-91
2022/09/20 07:41:00;;;;;;;4.82;1.67;;;;;;;18.47;100.00;94536.44;4963590;28;20038;-92
2022/09/20 07:43:25;;;;;;;5.72;2.50;;;;;;;18.34;100.00;94544.22;4947954;28;20034;-92
2022/09/20 07:45:55;;;;;;;9.70;2.22;;;;;;;18.53;100.00;94539.72;4963344;28;20035;-91
2022/09/20 07:48:24;;;;;;;5.60;1.70;;;;;;;18.79;97.49;94548.44;4963970;28;20078;-92
2022/09/20 07:50:58;;;;;;;5.32;2.13;;;;;;;18.57;96.30;94549.34;4963776;28;20057;-92
2022/09/20 07:53:24;;;;;;;3.83;2.03;;;;;;;18.86;90.05;94550.56;4963118;28;20122;-92
2022/09/20 07:56:00;;;;;;;2.97;1.75;;;;;;;19.33;90.70;94554.41;4946993;28;20051;-91
2022/09/20 07:58:28;;;;;;;8.52;2.15;;;;;;;19.42;84.95;94555.13;4963054;28;20034;-91
2022/09/20 08:00:55;;;;;;;3.03;1.50;;;;;;;19.41;82.15;94558.13;4963034;28;20037;-92
2022/09/20 08:03:21;;;;;;;2.38;1.42;;;;;;;19.17;68.63;94549.63;4963565;28;20037;-91
2022/09/20 08:05:48;;;;;;;4.55;1.45;;;;;;;19.52;77.26;94569.16;4963326;28;20031;-92
2022/09/20 08:08:15;;;;;;;1.92;1.10;;;;;;;19.75;67.58;94565.16;4963329;28;20038;-92
2022/09/20 08:10:41;;;;;;;4.90;1.42;;;;;;;19.72;69.87;94571.09;4963297;28;20030;-92
2022/09/20 08:13:07;;;;;;;3.47;0.95;;;;;;;19.62;68.63;94566.16;4947275;28;20030;-92
2022/09/20 08:15:33;;;;;;;5.70;1.27;;;;;;;19.76;74.68;94574.69;4962847;28;20029;-92
2022/09/20 08:21:20;;;;;;;5.82;1.17;;;;;;;19.65;74.32;94570.84;4980034;28;20560;-92
2022/09/20 08:23:49;;;;;;;3.72;1.38;;;;;;;19.81;65.12;94570.28;4963199;28;20050;-91
2022/09/20 08:29:36;;;;;;;1.85;1.10;;;;;;;19.57;66.76;94572.44;4979985;28;20034;-91
2022/09/20 08:32:02;;;;;;;3.67;1.23;;;;;;;19.94;71.51;94579.94;4946623;28;20440;-92
2022/09/20 08:34:27;;;;;;;2.88;1.00;;;;;;;20.26;67.06;94575.03;4962798;28;20023;-92
2022/09/20 08:36:55;;;;;;;5.22;1.20;;;;;;;20.24;68.48;94579.91;4946784;28;20039;-92
2022/09/20 08:39:23;;;;;;;3.80;1.33;;;;;;;20.44;68.82;94580.22;4947321;28;20134;-92
2022/09/20 08:41:56;;;;;;;3.70;1.15;;;;;;;19.67;75.56;94581.16;4946445;28;20026;-92
2022/09/20 08:44:31;;;;;;;3.53;1.30;;;;;;;20.01;69.16;94582.09;4962178;28;20027;-92
2022/09/20 08:47:04;;;;;;;3.25;0.98;;;;;;;20.48;64.96;94579.25;4962797;28;20121;-91
2022/09/20 08:49:30;;;;;;;4.82;1.20;;;;;;;20.53;68.49;94580.94;4962827;28;20023;-92
2022/09/20 08:51:57;;;;;;;10.25;1.05;;;;;;;20.49;68.88;94582.72;4946328;28;20376;-91
2022/09/20 08:54:24;;;;;;;3.65;1.25;;;;;;;19.54;71.92;94581.03;4962412;28;20026;-91
2022/09/20 08:56:50;;;;;;;5.57;1.05;;;;;;;20.39;78.84;94575.09;4962262;28;20030;-92
2022/09/20 08:59:18;;;;;;;1.88;1.00;;;;;;;20.54;71.27;94584.41;4962110;28;20457;-92
2022/09/20 09:01:45;;;;;;;2.88;0.80;;;;;;;20.75;67.25;94579.81;4961956;28;20030;-92
2022/09/20 09:04:16;;;;;;;3.40;1.00;;;;;;;20.99;65.45;94574.94;4946294;28;20496;-92
2022/09/20 09:06:42;;;;;;;8.45;1.20;;;;;;;20.29;69.80;94577.03;4946339;28;20180;-91
2022/09/20 09:09:27;;;;;;;2.05;1.20;;;;;;;20.11;71.05;94575.63;4961868;28;20499;-92
2022/09/20 09:11:54;;;;;;;2.63;1.20;;;;;;;20.90;70.19;94569.69;4962087;28;20443;-92
2022/09/20 09:17:12;;;;;;;3.00;1.00;;;;;;;20.85;67.20;94572.56;4979061;28;20034;-93
2022/09/20 09:19:49;;;;;;;5.05;1.00;;;;;;;21.07;65.33;94581.28;4961872;28;20034;-92
2022/09/20 09:22:40;;;;;;;2.25;0.82;;;;;;;21.45;64.33;94567.72;4961737;28;20030;-92
2022/09/20 09:25:21;;;;;;;4.40;0.73;;;;;;;20.93;65.65;94582.34;4961369;28;20034;-93
2022/09/20 09:27:56;;;;;;;5.10;1.02;;;;;;;21.28;61.58;94565.22;4961741;28;20027;-92
2022/09/20 09:30:41;;;;;;;2.30;0.82;;;;;;;20.87;64.49;94563.16;4961407;28;20027;-92
2022/09/20 09:33:27;;;;;;;1.50;0.80;;;;;;;21.01;60.62;94572.72;4961368;28;20034;-92
2022/09/20 09:36:21;;;;;;;2.55;0.80;;;;;;;21.62;57.43;94565.94;4961694;28;20022;-92
2022/09/20 09:38:47;;;;;;;1.80;0.77;;;;;;;21.43;58.71;94569.16;4958293;28;20125;-92
2022/09/20 09:41:25;;;;;;;1.45;0.80;;;;;;;21.53;56.95;94563.41;4945507;28;20109;-92
2022/09/20 09:43:59;;;;;;;1.83;0.80;;;;;;;21.51;58.42;94560.25;4946025;28;20027;-92
2022/09/20 09:46:26;;;;;;;5.60;1.10;;;;;;;21.32;62.32;94564.25;4945171;28;20027;-92
2022/09/20 09:49:16;;;;;;;2.28;0.90;;;;;;;21.56;62.82;94561.94;4945452;28;20023;-91
2022/09/20 09:52:14;;;;;;;1.98;0.75;;;;;;;21.13;54.18;94550.69;4961704;28;20031;-92
2022/09/20 09:54:49;;;;;;;1.77;0.70;;;;;;;21.37;53.17;94555.25;4945584;28;20037;-92
2022/09/20 09:57:27;;;;;;;11.45;1.27;;;;;;;21.54;54.66;94556.94;4961252;28;20387;-92
2022/09/20 10:00:18;;;;;;;4.22;0.80;;;;;;;21.49;55.39;94551.81;4961299;28;20077;-92
2022/09/20 10:03:04;;;;;;;1.17;0.70;;;;;;;21.60;54.40;94542.28;4945358;28;20324;-93
2022/09/20 10:05:32;;;;;;;5.63;0.63;;;;;;;21.71;51.95;94544.53;4945115;28;20031;-91
2022/09/20 10:08:24;;;;;;;1.83;0.88;;;;;;;22.18;53.20;94543.25;4961376;28;20029;-92
2022/09/20 10:11:48;;;;;;;4.60;1.00;;;;;;;21.44;48.02;94538.72;4978479;28;20118;-92
2022/09/20 10:14:31;;;;;;;3.65;1.38;;;;;;;21.92;47.20;94538.28;4898117;28;20515;-92
2022/09/20 10:17:18;;;;;;;2.50;0.88;;;;;;;21.92;52.11;94540.94;4961421;28;20456;-92
2022/09/20 10:20:06;;;;;;;1.85;1.00;;;;;;;22.34;57.23;94537.22;4963317;28;20034;-93
2022/09/20 10:22:45;;;;;;;1.98;1.13;;;;;;;21.68;57.98;94542.53;4965231;28;20031;-92
2022/09/20 10:25:16;;;;;;;1.15;0.70;;;;;;;21.96;58.31;94536.53;4965196;28;20030;-93
2022/09/20 10:27:48;;;;;;;3.00;1.10;;;;;;;21.52;53.85;94539.72;4965019;28;20433;-92
2022/09/20 10:30:17;;;;;;;3.08;0.90;;;;;;;22.35;51.86;94534.19;4964419;28;20034;-93
2022/09/20 10:32:45;;;;;;;1.02;0.68;;;;;;;21.99;47.93;94535.84;4964599;28;20121;-93
2022/09/20 10:35:38;;;;;;;1.23;0.55;;;;;;;21.59;50.25;94538.06;4964664;28;20046;-92
2022/09/20 10:38:10;;;;;;;2.83;1.15;;;;;;;22.33;51.02;94528.41;4964742;28;20057;-93
2022/09/20 10:43:50;;;;;;;;;;;;;;;22.53;54.00;94534.72;4967317;28;20114;-92
2022/09/20 10:46:31;;;;;;;3.43;1.43;;;;;;;22.43;57.05;94532.50;4981744;28;20320;-93
2022/09/20 10:49:23;;;;;;;6.75;1.70;;;;;;;22.26;57.63;94531.66;4981500;28;20270;-92
2022/09/20 10:52:08;;;;;;;4.10;1.60;;;;;;;22.76;56.35;94528.84;4964828;28;20432;-92
2022/09/20 10:55:11;;;;;;;5.57;2.00;;;;;;;22.42;57.53;94530.94;4964341;28;20038;-92
2022/09/20 10:58:03;;;;;;;3.97;1.60;;;;;;;22.08;56.73;94544.47;4981149;28;20027;-92
2022/09/20 11:00:34;;;;;;;4.60;1.73;;;;;;;22.16;56.64;94529.44;4915952;28;20034;-92
2022/09/20 11:03:46;;;;;;;5.05;1.80;;;;;;;21.82;58.91;94536.84;4964108;28;20459;-92
2022/09/20 11:06:18;;;;;;;4.43;1.63;;;;;;;21.84;54.28;94538.09;4963914;28;20097;-92
2022/09/20 11:08:49;;;;;;;3.50;1.40;;;;;;;21.85;54.58;94539.63;4980953;28;20037;-92
2022/09/20 11:11:19;;;;;;;5.05;1.40;;;;;;;21.79;57.95;94532.19;4964371;28;20336;-92
2022/09/20 11:14:09;;;;;;;10.57;2.78;;;;;;;21.57;62.14;94539.50;4948412;28;20026;-93
2022/09/20 11:16:46;;;;;;;6.63;2.80;;;;;;;21.65;61.36;94527.16;4964280;28;20038;-91
2022/09/20 11:19:33;;;;;;;3.42;1.63;;;;;;;21.67;62.13;94535.66;4963956;28;20436;-93
2022/09/20 11:22:23;;;;;;;8.10;3.13;;;;;;;21.61;61.99;94538.50;4964137;28;20022;-92
2022/09/20 11:25:08;;;;;;;8.73;2.15;;;;;;;22.59;62.17;94532.59;4947436;28;20381;-92
2022/09/20 11:27:40;;;;;;;8.73;2.63;;;;;;;22.50;62.18;94529.28;4963448;28;20113;-92
2022/09/20 11:30:20;;;;;;;4.72;2.38;;;;;;;22.25;62.58;94532.78;4946801;28;20026;-92
2022/09/20 11:32:52;;;;;;;6.43;2.70;;;;;;;22.66;59.94;94527.44;4963812;28;20031;-92
2022/09/20 11:35:25;;;;;;;9.82;2.17;;;;;;;22.68;61.12;94517.22;4963389;28;20026;-91
2022/09/20 11:38:10;;;;;;;7.32;2.80;;;;;;;22.17;74.60;94512.34;4947370;28;20081;-91
2022/09/20 11:40:45;;;;;;;6.18;2.30;;;;;;;22.48;59.33;94516.28;4963138;28;20031;-92
2022/09/20 11:43:12;;;;;;;11.30;2.47;;;;;;;22.52;62.04;94508.34;4963210;28;20094;-92
2022/09/20 11:45:39;;;;;;;4.13;2.00;;;;;;;22.77;58.54;94500.22;4963567;28;20031;-92
2022/09/20 11:51:33;;;;;;;10.15;2.53;;;;;;;22.99;60.16;94496.22;4980103;28;20093;-92
2022/09/20 11:54:27;;;;;;;6.28;2.10;;;;;;;23.33;60.01;94504.72;4962916;28;20137;-92
2022/09/20 11:56:56;;;;;;;6.28;3.30;;;;;;;22.96;60.69;94500.38;4963369;28;20475;-92
2022/09/20 11:59:28;;;;;;;5.43;2.63;;;;;;;22.69;62.24;94493.94;4963228;28;20027;-93
2022/09/20 12:01:55;;;;;;;12.85;2.47;;;;;;;22.82;60.81;94494.66;4962825;28;20377;-93
2022/09/20 12:04:52;;;;;;;7.07;2.40;;;;;;;23.47;58.36;94498.16;4963068;28;20030;-92
2022/09/20 12:08:13;;;;;;;8.32;2.42;;;;;;;23.17;62.02;94491.31;4961297;28;20062;-92
2022/09/20 12:10:39;;;;;;;5.32;2.45;;;;;;;22.95;59.52;94492.69;4963095;28;20318;-92
2022/09/20 12:13:14;;;;;;;3.40;1.92;;;;;;;23.45;57.37;94495.81;4946778;28;20033;-93
2022/09/20 12:15:40;;;;;;;6.63;2.90;;;;;;;23.34;60.16;94490.22;4962484;28;20068;-92
2022/09/20 12:18:12;;;;;;;8.55;2.63;;;;;;;23.10;59.83;94486.56;4962608;28;20027;-92
2022/09/20 12:20:37;;;;;;;7.25;2.47;;;;;;;22.68;62.28;94485.16;4962769;28;20022;-92
2022/09/20 12:23:40;;;;;;;8.65;2.78;;;;;;;22.22;61.20;94480.09;4962499;28;20026;-92
2022/09/20 12:26:12;;;;;;;9.82;2.50;;;;;;;22.59;58.58;94479.97;4962711;28;20038;-92
2022/09/20 12:28:48;;;;;;;9.68;2.55;;;;;;;22.98;56.95;94484.75;4962376;28;20060;-92
2022/09/20 12:31:17;;;;;;;10.02;2.20;;;;;;;22.81;55.96;94482.41;4962645;28;20444;-92
2022/09/20 12:34:10;;;;;;;3.75;1.80;;;;;;;23.39;55.03;94481.19;4979584;28;20065;-92
2022/09/20 12:36:43;;;;;;;7.47;2.47;;;;;;;22.55;53.91;94476.41;4962250;28;20529;-92
2022/09/20 12:39:12;;;;;;;6.47;1.88;;;;;;;23.39;54.46;94481.94;4962243;28;20030;-92
2022/09/20 12:41:57;;;;;;;7.15;2.28;;;;;;;22.93;54.49;94477.00;4961990;28;20082;-92
2022/09/20 12:44:27;;;;;;;4.80;2.10;;;;;;;22.81;54.43;94477.06;4962306;28;20034;-92
2022/09/20 12:46:55;;;;;;;7.85;2.33;;;;;;;23.07;55.27;94478.47;4961960;28;20035;-92
2022/09/20 12:55:37;;;;;;;5.63;2.22;;;;;;;23.79;57.27;94466.75;4964271;28;20424;-91
2022/09/20 12:58:04;;;;;;;13.93;2.38;;;;;;;22.87;57.04;94459.69;4946371;28;20081;-91